sensor_id;sensor_type;location;lat;lon;timestamp;pressure;altitude;pressure_sealevel;temperature;humidity
69980;BME280;57318;56.232;43.944;2023-03-26T00:01:05;97916.34;;;7.16;95.51
69980;BME280;57318;56.232;43.944;2023-03-26T00:03:33;97918.97;;;7.16;95.47
69980;BME280;57318;56.232;43.944;2023-03-26T00:06:08;97914.13;;;7.11;95.45
69980;BME280;57318;56.232;43.944;2023-03-26T00:08:36;97914.66;;;7.15;95.38
69980;BME280;57318;56.232;43.944;2023-03-26T00:11:03;97914.13;;;7.11;95.49
69980;BME280;57318;56.232;43.944;2023-03-26T00:13:29;97914.94;;;7.12;95.44
69980;BME280;57318;56.232;43.944;2023-03-26T00:15:55;97925.38;;;7.13;95.45
69980;BME280;57318;56.232;43.944;2023-03-26T00:18:21;97917.16;;;7.07;95.40
69980;BME280;57318;56.232;43.944;2023-03-26T00:20:50;97926.91;;;7.06;95.33
69980;BME280;57318;56.232;43.944;2023-03-26T00:23:16;97934.97;;;7.04;95.47
69980;BME280;57318;56.232;43.944;2023-03-26T00:25:41;97932.47;;;7.03;95.10
69980;BME280;57318;56.232;43.944;2023-03-26T00:28:08;97928.97;;;7.02;95.34
69980;BME280;57318;56.232;43.944;2023-03-26T00:30:34;97930.22;;;6.98;95.33
69980;BME280;57318;56.232;43.944;2023-03-26T00:33:01;97930.22;;;6.98;95.61
69980;BME280;57318;56.232;43.944;2023-03-26T00:35:27;97935.06;;;6.93;95.42
69980;BME280;57318;56.232;43.944;2023-03-26T00:37:55;97938.56;;;6.94;95.64
69980;BME280;57318;56.232;43.944;2023-03-26T00:40:22;97935.25;;;6.92;95.55
69980;BME280;57318;56.232;43.944;2023-03-26T00:42:48;97938.56;;;6.94;95.53
69980;BME280;57318;56.232;43.944;2023-03-26T00:45:14;97933.56;;;6.91;95.57
69980;BME280;57318;56.232;43.944;2023-03-26T00:47:41;97938.84;;;6.91;95.75
69980;BME280;57318;56.232;43.944;2023-03-26T00:50:07;97939.78;;;6.90;95.71
69980;BME280;57318;56.232;43.944;2023-03-26T00:52:41;97942.44;;;6.90;95.90
69980;BME280;57318;56.232;43.944;2023-03-26T00:55:08;97938.97;;;6.89;96.24
69980;BME280;57318;56.232;43.944;2023-03-26T00:57:34;97936.19;;;6.91;96.42
69980;BME280;57318;56.232;43.944;2023-03-26T01:00:08;97928.97;;;6.93;96.35
69980;BME280;57318;56.232;43.944;2023-03-26T01:02:35;97927.88;;;6.95;96.34
69980;BME280;57318;56.232;43.944;2023-03-26T01:08:17;97931.75;;;7.01;96.40
69980;BME280;57318;56.232;43.944;2023-03-26T01:10:44;97940.38;;;7.03;96.17
69980;BME280;57318;56.232;43.944;2023-03-26T01:13:22;97937.03;;;7.01;95.97
69980;BME280;57318;56.232;43.944;2023-03-26T01:15:49;97942.44;;;6.99;95.84
69980;BME280;57318;56.232;43.944;2023-03-26T01:18:20;97941.47;;;7.00;95.93
69980;BME280;57318;56.232;43.944;2023-03-26T01:20:52;97942.59;;;6.98;95.70
69980;BME280;57318;56.232;43.944;2023-03-26T01:23:29;97953.16;;;6.98;95.47
69980;BME280;57318;56.232;43.944;2023-03-26T01:26:23;97958.69;;;6.95;95.41
69980;BME280;57318;56.232;43.944;2023-03-26T01:28:54;97961.63;;;6.92;95.47
69980;BME280;57318;56.232;43.944;2023-03-26T01:31:25;97960.91;;;6.90;95.62
69980;BME280;57318;56.232;43.944;2023-03-26T01:34:11;97956.34;;;6.92;95.82
69980;BME280;57318;56.232;43.944;2023-03-26T01:39:55;97956.34;;;6.92;95.75
69980;BME280;57318;56.232;43.944;2023-03-26T01:45:25;97966.91;;;6.92;95.53
69980;BME280;57318;56.232;43.944;2023-03-26T01:47:53;97959.69;;;6.94;95.67
69980;BME280;57318;56.232;43.944;2023-03-26T01:50:19;97958.00;;;6.93;95.63
69980;BME280;57318;56.232;43.944;2023-03-26T01:52:45;97962.88;;;6.97;95.61
69980;BME280;57318;56.232;43.944;2023-03-26T01:55:11;97966.34;;;6.98;95.43
69980;BME280;57318;56.232;43.944;2023-03-26T02:00:28;97971.63;;;6.98;95.25
69980;BME280;57318;56.232;43.944;2023-03-26T02:05:41;97969.97;;;6.97;94.76
69980;BME280;57318;56.232;43.944;2023-03-26T02:08:16;97977.19;;;6.95;94.63
69980;BME280;57318;56.232;43.944;2023-03-26T02:10:50;97982.59;;;6.93;94.72
69980;BME280;57318;56.232;43.944;2023-03-26T02:13:17;97982.78;;;6.92;94.47
69980;BME280;57318;56.232;43.944;2023-03-26T02:16:00;97982.19;;;6.88;94.39
69980;BME280;57318;56.232;43.944;2023-03-26T02:18:27;97982.44;;;6.85;94.33
69980;BME280;57318;56.232;43.944;2023-03-26T02:21:08;97992.72;;;6.78;94.06
69980;BME280;57318;56.232;43.944;2023-03-26T02:23:35;97992.44;;;6.72;94.33
69980;BME280;57318;56.232;43.944;2023-03-26T02:26:05;97994.09;;;6.73;94.46
69980;BME280;57318;56.232;43.944;2023-03-26T02:28:31;97992.69;;;6.68;94.74
69980;BME280;57318;56.232;43.944;2023-03-26T02:30:56;97988.25;;;6.69;94.89
69980;BME280;57318;56.232;43.944;2023-03-26T02:33:27;97990.19;;;6.67;94.92
69980;BME280;57318;56.232;43.944;2023-03-26T02:35:52;97991.97;;;6.66;94.92
69980;BME280;57318;56.232;43.944;2023-03-26T02:38:18;97993.78;;;6.66;94.99
69980;BME280;57318;56.232;43.944;2023-03-26T02:40:43;98002.41;;;6.68;95.18
69980;BME280;57318;56.232;43.944;2023-03-26T02:43:09;97999.34;;;6.63;95.36
69980;BME280;57318;56.232;43.944;2023-03-26T02:45:35;98001.28;;;6.61;95.63
69980;BME280;57318;56.232;43.944;2023-03-26T02:48:00;97999.59;;;6.60;95.74
69980;BME280;57318;56.232;43.944;2023-03-26T02:50:26;98006.44;;;6.62;95.57
69980;BME280;57318;56.232;43.944;2023-03-26T02:52:52;98003.09;;;6.60;95.54
69980;BME280;57318;56.232;43.944;2023-03-26T02:55:18;98014.59;;;6.59;95.84
69980;BME280;57318;56.232;43.944;2023-03-26T02:57:44;98007.66;;;6.58;95.66
69980;BME280;57318;56.232;43.944;2023-03-26T03:00:10;98006.81;;;6.58;95.88
69980;BME280;57318;56.232;43.944;2023-03-26T03:02:39;98007.38;;;6.61;96.11
69980;BME280;57318;56.232;43.944;2023-03-26T03:05:05;98008.25;;;6.62;96.20
69980;BME280;57318;56.232;43.944;2023-03-26T03:07:32;98003.66;;;6.64;96.36
69980;BME280;57318;56.232;43.944;2023-03-26T03:10:03;98009.63;;;6.66;96.28
69980;BME280;57318;56.232;43.944;2023-03-26T03:12:33;98010.31;;;6.68;96.14
69980;BME280;57318;56.232;43.944;2023-03-26T03:14:59;98007.41;;;6.71;96.31
69980;BME280;57318;56.232;43.944;2023-03-26T03:17:25;98012.44;;;6.74;96.23
69980;BME280;57318;56.232;43.944;2023-03-26T03:19:51;98006.06;;;6.77;96.33
69980;BME280;57318;56.232;43.944;2023-03-26T03:22:17;98007.88;;;6.76;96.17
69980;BME280;57318;56.232;43.944;2023-03-26T03:24:42;98013.00;;;6.78;96.33
69980;BME280;57318;56.232;43.944;2023-03-26T03:27:08;98014.53;;;6.80;96.26
69980;BME280;57318;56.232;43.944;2023-03-26T03:29:34;98009.38;;;6.79;96.24
69980;BME280;57318;56.232;43.944;2023-03-26T03:32:00;98010.38;;;6.78;95.76
69980;BME280;57318;56.232;43.944;2023-03-26T03:34:26;98011.06;;;6.80;95.82
69980;BME280;57318;56.232;43.944;2023-03-26T03:36:52;98015.38;;;6.81;95.79
69980;BME280;57318;56.232;43.944;2023-03-26T03:39:17;98004.97;;;6.79;95.65
69980;BME280;57318;56.232;43.944;2023-03-26T03:41:43;98001.06;;;6.83;95.84
69980;BME280;57318;56.232;43.944;2023-03-26T03:44:09;98000.66;;;6.88;95.71
69980;BME280;57318;56.232;43.944;2023-03-26T03:46:34;97993.47;;;6.90;95.78
69980;BME280;57318;56.232;43.944;2023-03-26T03:49:00;97995.53;;;6.96;95.74
69980;BME280;57318;56.232;43.944;2023-03-26T03:51:26;98001.13;;;7.03;95.79
69980;BME280;57318;56.232;43.944;2023-03-26T03:53:52;97993.34;;;7.01;95.55
69980;BME280;57318;56.232;43.944;2023-03-26T03:56:20;97991.94;;;7.07;95.39
69980;BME280;57318;56.232;43.944;2023-03-26T03:58:49;97990.56;;;7.13;95.34
69980;BME280;57318;56.232;43.944;2023-03-26T04:01:15;97990.31;;;7.16;95.13
69980;BME280;57318;56.232;43.944;2023-03-26T04:03:41;97984.75;;;7.19;94.92
69980;BME280;57318;56.232;43.944;2023-03-26T04:06:11;97985.56;;;7.19;94.65
69980;BME280;57318;56.232;43.944;2023-03-26T04:08:37;97996.41;;;7.16;94.14
69980;BME280;57318;56.232;43.944;2023-03-26T04:11:03;97995.03;;;7.12;93.93
69980;BME280;57318;56.232;43.944;2023-03-26T04:13:28;97988.06;;;7.11;93.86
69980;BME280;57318;56.232;43.944;2023-03-26T04:15:54;97980.00;;;7.13;93.82
69980;BME280;57318;56.232;43.944;2023-03-26T04:18:20;97988.63;;;7.15;94.05
69980;BME280;57318;56.232;43.944;2023-03-26T04:20:46;97982.53;;;7.14;93.68
69980;BME280;57318;56.232;43.944;2023-03-26T04:23:17;97989.31;;;7.07;93.60
69980;BME280;57318;56.232;43.944;2023-03-26T04:25:49;97990.03;;;7.09;93.65
69980;BME280;57318;56.232;43.944;2023-03-26T04:28:33;97987.38;;;7.09;93.83
69980;BME280;57318;56.232;43.944;2023-03-26T04:31:01;97996.97;;;7.10;94.04
69980;BME280;57318;56.232;43.944;2023-03-26T04:33:32;97995.88;;;7.13;94.20
69980;BME280;57318;56.232;43.944;2023-03-26T04:35:59;97995.88;;;7.13;94.35
69980;BME280;57318;56.232;43.944;2023-03-26T04:38:29;98003.66;;;7.14;94.32
69980;BME280;57318;56.232;43.944;2023-03-26T04:40:59;98000.75;;;7.17;94.38
69980;BME280;57318;56.232;43.944;2023-03-26T04:43:24;98014.78;;;7.18;94.44
69980;BME280;57318;56.232;43.944;2023-03-26T04:45:51;98003.66;;;7.14;94.15
69980;BME280;57318;56.232;43.944;2023-03-26T04:48:18;98000.19;;;7.14;94.24
69980;BME280;57318;56.232;43.944;2023-03-26T04:50:45;98001.56;;;7.18;94.18
69980;BME280;57318;56.232;43.944;2023-03-26T04:53:14;98006.44;;;7.22;94.08
69980;BME280;57318;56.232;43.944;2023-03-26T04:56:00;98002.56;;;7.27;94.13
69980;BME280;57318;56.232;43.944;2023-03-26T04:58:27;98006.84;;;7.28;94.02
69980;BME280;57318;56.232;43.944;2023-03-26T05:01:01;97999.50;;;7.31;94.00
69980;BME280;57318;56.232;43.944;2023-03-26T05:03:28;97998.25;;;7.35;93.76
69980;BME280;57318;56.232;43.944;2023-03-26T05:06:00;97997.00;;;7.39;93.86
69980;BME280;57318;56.232;43.944;2023-03-26T05:08:26;97994.50;;;7.48;93.73
69980;BME280;57318;56.232;43.944;2023-03-26T05:10:56;97992.53;;;7.50;93.39
69980;BME280;57318;56.232;43.944;2023-03-26T05:13:22;97996.44;;;7.55;93.23
69980;BME280;57318;56.232;43.944;2023-03-26T05:15:48;97992.28;;;7.63;93.33
69980;BME280;57318;56.232;43.944;2023-03-26T05:18:14;97984.47;;;7.71;93.21
69980;BME280;57318;56.232;43.944;2023-03-26T05:20:40;97990.84;;;7.78;93.09
69980;BME280;57318;56.232;43.944;2023-03-26T05:23:06;97982.66;;;7.81;93.02
69980;BME280;57318;56.232;43.944;2023-03-26T05:25:32;97982.78;;;7.80;92.62
69980;BME280;57318;56.232;43.944;2023-03-26T05:28:00;97981.69;;;7.82;92.62
69980;BME280;57318;56.232;43.944;2023-03-26T05:30:26;97986.97;;;7.82;92.57
69980;BME280;57318;56.232;43.944;2023-03-26T05:32:51;97991.28;;;7.83;92.31
69980;BME280;57318;56.232;43.944;2023-03-26T05:35:18;97986.41;;;7.88;92.48
69980;BME280;57318;56.232;43.944;2023-03-26T05:37:45;97988.47;;;7.94;92.33
69980;BME280;57318;56.232;43.944;2023-03-26T05:40:13;97986.38;;;7.98;92.23
69980;BME280;57318;56.232;43.944;2023-03-26T05:42:41;97989.59;;;8.02;91.94
69980;BME280;57318;56.232;43.944;2023-03-26T05:45:09;97991.81;;;7.97;91.88
69980;BME280;57318;56.232;43.944;2023-03-26T05:47:35;97989.31;;;7.95;91.69
69980;BME280;57318;56.232;43.944;2023-03-26T05:50:01;97989.88;;;7.89;91.71
69980;BME280;57318;56.232;43.944;2023-03-26T05:52:27;97992.94;;;7.84;91.64
69980;BME280;57318;56.232;43.944;2023-03-26T05:54:53;97987.94;;;7.81;91.77
69980;BME280;57318;56.232;43.944;2023-03-26T05:57:19;97986.41;;;7.79;91.90
69980;BME280;57318;56.232;43.944;2023-03-26T05:59:47;97992.00;;;7.75;92.06
69980;BME280;57318;56.232;43.944;2023-03-26T06:02:12;97982.53;;;7.73;91.90
69980;BME280;57318;56.232;43.944;2023-03-26T06:04:38;97969.44;;;7.71;92.10
69980;BME280;57318;56.232;43.944;2023-03-26T06:07:05;97971.94;;;7.73;92.16
69980;BME280;57318;56.232;43.944;2023-03-26T06:09:35;97978.22;;;7.72;92.34
69980;BME280;57318;56.232;43.944;2023-03-26T06:12:04;97977.38;;;7.71;92.47
69980;BME280;57318;56.232;43.944;2023-03-26T06:14:30;97978.22;;;7.72;92.46
69980;BME280;57318;56.232;43.944;2023-03-26T06:16:56;97973.06;;;7.70;92.66
69980;BME280;57318;56.232;43.944;2023-03-26T06:19:21;97970.97;;;7.74;92.60
69980;BME280;57318;56.232;43.944;2023-03-26T06:21:47;97974.31;;;7.76;92.81
69980;BME280;57318;56.232;43.944;2023-03-26T06:24:13;97965.53;;;7.75;92.68
69980;BME280;57318;56.232;43.944;2023-03-26T06:26:41;97973.63;;;7.74;92.71
69980;BME280;57318;56.232;43.944;2023-03-26T06:29:07;97974.72;;;7.71;92.63
69980;BME280;57318;56.232;43.944;2023-03-26T06:31:33;97976.69;;;7.69;92.80
69980;BME280;57318;56.232;43.944;2023-03-26T06:33:59;97976.69;;;7.69;93.09
69980;BME280;57318;56.232;43.944;2023-03-26T06:36:25;97986.97;;;7.72;92.95
69980;BME280;57318;56.232;43.944;2023-03-26T06:38:50;97985.44;;;7.70;93.04
69980;BME280;57318;56.232;43.944;2023-03-26T06:41:16;97983.66;;;7.70;92.99
69980;BME280;57318;56.232;43.944;2023-03-26T06:43:42;97979.34;;;7.69;93.07
69980;BME280;57318;56.232;43.944;2023-03-26T06:46:08;97981.16;;;7.69;93.15
69980;BME280;57318;56.232;43.944;2023-03-26T06:48:34;97975.28;;;7.65;93.27
69980;BME280;57318;56.232;43.944;2023-03-26T06:50:59;97974.47;;;7.65;93.24
69980;BME280;57318;56.232;43.944;2023-03-26T06:53:25;97969.47;;;7.62;93.06
69980;BME280;57318;56.232;43.944;2023-03-26T06:55:54;97964.59;;;7.57;93.07
69980;BME280;57318;56.232;43.944;2023-03-26T06:58:20;97977.81;;;7.47;93.30
69980;BME280;57318;56.232;43.944;2023-03-26T07:00:46;97970.84;;;7.46;93.07
69980;BME280;57318;56.232;43.944;2023-03-26T07:03:12;97963.63;;;7.48;93.29
69980;BME280;57318;56.232;43.944;2023-03-26T07:05:39;97957.34;;;7.49;93.26
69980;BME280;57318;56.232;43.944;2023-03-26T07:08:05;97962.91;;;7.46;93.46
69980;BME280;57318;56.232;43.944;2023-03-26T07:10:32;97959.19;;;7.49;93.33
69980;BME280;57318;56.232;43.944;2023-03-26T07:12:57;97952.47;;;7.54;93.01
69980;BME280;57318;56.232;43.944;2023-03-26T07:15:23;97950.00;;;7.63;92.97
69980;BME280;57318;56.232;43.944;2023-03-26T07:17:49;97938.72;;;7.70;92.83
69980;BME280;57318;56.232;43.944;2023-03-26T07:20:15;97946.63;;;7.80;92.38
69980;BME280;57318;56.232;43.944;2023-03-26T07:22:40;97939.63;;;7.89;91.95
69980;BME280;57318;56.232;43.944;2023-03-26T07:25:07;97942.69;;;7.94;91.31
69980;BME280;57318;56.232;43.944;2023-03-26T07:27:54;97940.19;;;7.92;90.81
69980;BME280;57318;56.232;43.944;2023-03-26T07:34:02;97947.41;;;7.90;90.74
69980;BME280;57318;56.232;43.944;2023-03-26T07:36:32;97937.13;;;7.87;90.52
69980;BME280;57318;56.232;43.944;2023-03-26T07:47:14;97941.28;;;8.00;90.48
69980;BME280;57318;56.232;43.944;2023-03-26T07:49:44;97926.09;;;8.02;90.39
69980;BME280;57318;56.232;43.944;2023-03-26T07:52:10;97924.53;;;8.09;90.10
69980;BME280;57318;56.232;43.944;2023-03-26T07:54:36;97914.34;;;8.14;89.89
69980;BME280;57318;56.232;43.944;2023-03-26T07:57:09;97919.63;;;8.24;89.50
69980;BME280;57318;56.232;43.944;2023-03-26T08:05:23;97916.03;;;8.15;88.87
69980;BME280;57318;56.232;43.944;2023-03-26T08:08:21;97910.88;;;8.13;88.78
69980;BME280;57318;56.232;43.944;2023-03-26T08:13:25;97897.50;;;8.15;88.83
69980;BME280;57318;56.232;43.944;2023-03-26T08:21:14;97898.59;;;8.22;88.76
69980;BME280;57318;56.232;43.944;2023-03-26T08:29:24;97891.81;;;8.38;87.62
69980;BME280;57318;56.232;43.944;2023-03-26T08:31:53;97893.78;;;8.36;87.30
69980;BME280;57318;56.232;43.944;2023-03-26T08:34:20;97896.00;;;8.40;87.15
69980;BME280;57318;56.232;43.944;2023-03-26T08:36:46;97889.03;;;8.49;87.13
69980;BME280;57318;56.232;43.944;2023-03-26T08:39:11;97885.53;;;8.48;86.69
69980;BME280;57318;56.232;43.944;2023-03-26T08:50:02;97877.09;;;8.63;86.22
69980;BME280;57318;56.232;43.944;2023-03-26T09:21:11;97878.19;;;8.32;88.31
69980;BME280;57318;56.232;43.944;2023-03-26T09:26:45;97872.97;;;8.23;88.86
69980;BME280;57318;56.232;43.944;2023-03-26T09:35:48;97863.28;;;8.31;89.09
69980;BME280;57318;56.232;43.944;2023-03-26T09:41:16;97876.69;;;8.30;89.06
69980;BME280;57318;56.232;43.944;2023-03-26T09:43:57;97874.59;;;8.34;89.20
69980;BME280;57318;56.232;43.944;2023-03-26T09:49:13;97874.78;;;8.50;88.92
69980;BME280;57318;56.232;43.944;2023-03-26T10:11:10;97842.56;;;10.05;83.06
69980;BME280;57318;56.232;43.944;2023-03-26T10:25:21;97833.56;;;9.19;85.26
69980;BME280;57318;56.232;43.944;2023-03-26T10:36:26;97815.22;;;8.82;88.06
69980;BME280;57318;56.232;43.944;2023-03-26T10:44:24;97834.13;;;8.87;88.85
69980;BME280;57318;56.232;43.944;2023-03-26T10:47:13;97820.00;;;8.96;88.74
69980;BME280;57318;56.232;43.944;2023-03-26T10:52:51;97828.03;;;9.31;87.47
69980;BME280;57318;56.232;43.944;2023-03-26T10:55:21;97823.81;;;9.46;86.80
69980;BME280;57318;56.232;43.944;2023-03-26T10:57:55;97818.75;;;9.53;86.31
69980;BME280;57318;56.232;43.944;2023-03-26T11:00:26;97818.53;;;9.46;86.05
69980;BME280;57318;56.232;43.944;2023-03-26T11:03:10;97810.94;;;9.51;86.00
69980;BME280;57318;56.232;43.944;2023-03-26T11:06:06;97816.25;;;9.51;85.88
69980;BME280;57318;56.232;43.944;2023-03-26T11:14:23;97815.50;;;9.67;85.42
69980;BME280;57318;56.232;43.944;2023-03-26T11:17:13;97811.13;;;10.19;83.96
69980;BME280;57318;56.232;43.944;2023-03-26T11:19:59;97813.63;;;11.04;80.62
69980;BME280;57318;56.232;43.944;2023-03-26T11:30:35;97817.56;;;12.22;74.23
69980;BME280;57318;56.232;43.944;2023-03-26T11:33:08;97819.44;;;12.76;72.40
69980;BME280;57318;56.232;43.944;2023-03-26T11:35:47;97809.13;;;12.73;71.37
69980;BME280;57318;56.232;43.944;2023-03-26T11:38:58;97811.03;;;12.64;71.82
69980;BME280;57318;56.232;43.944;2023-03-26T11:41:21;97808.31;;;12.41;72.53
69980;BME280;57318;56.232;43.944;2023-03-26T11:44:35;97809.88;;;12.27;72.93
69980;BME280;57318;56.232;43.944;2023-03-26T11:46:37;97798.81;;;12.15;73.63
69980;BME280;57318;56.232;43.944;2023-03-26T11:49:08;97794.69;;;12.04;73.97
69980;BME280;57318;56.232;43.944;2023-03-26T11:51:37;97802.50;;;11.98;74.02
69980;BME280;57318;56.232;43.944;2023-03-26T11:54:05;97793.03;;;12.03;74.28
69980;BME280;57318;56.232;43.944;2023-03-26T11:56:36;97785.16;;;12.18;73.82
69980;BME280;57318;56.232;43.944;2023-03-26T11:59:40;97794.91;;;12.57;72.52
69980;BME280;57318;56.232;43.944;2023-03-26T12:04:37;97813.25;;;13.45;69.05
69980;BME280;57318;56.232;43.944;2023-03-26T12:09:58;97794.78;;;13.73;67.04
69980;BME280;57318;56.232;43.944;2023-03-26T12:12:30;97794.25;;;13.78;66.64
69980;BME280;57318;56.232;43.944;2023-03-26T12:14:58;97798.22;;;13.82;66.19
69980;BME280;57318;56.232;43.944;2023-03-26T12:17:27;97786.31;;;13.84;65.95
69980;BME280;57318;56.232;43.944;2023-03-26T12:19:54;97781.81;;;13.55;66.53
69980;BME280;57318;56.232;43.944;2023-03-26T12:25:24;97777.09;;;13.42;67.21
69980;BME280;57318;56.232;43.944;2023-03-26T12:28:04;97775.31;;;13.34;67.26
69980;BME280;57318;56.232;43.944;2023-03-26T12:30:57;97774.03;;;13.30;67.41
69980;BME280;57318;56.232;43.944;2023-03-26T12:33:28;97779.03;;;13.10;67.13
69980;BME280;57318;56.232;43.944;2023-03-26T12:35:56;97770.50;;;12.92;68.06
69980;BME280;57318;56.232;43.944;2023-03-26T12:41:10;97762.09;;;12.57;69.38
69980;BME280;57318;56.232;43.944;2023-03-26T12:46:09;97747.88;;;12.18;70.64
69980;BME280;57318;56.232;43.944;2023-03-26T12:48:43;97751.41;;;12.11;70.81
69980;BME280;57318;56.232;43.944;2023-03-26T13:07:45;97732.88;;;11.69;71.24
69980;BME280;57318;56.232;43.944;2023-03-26T13:35:55;97695.47;;;11.71;70.70
69980;BME280;57318;56.232;43.944;2023-03-26T13:38:48;97699.81;;;11.72;70.26
69980;BME280;57318;56.232;43.944;2023-03-26T13:46:46;97694.81;;;11.69;69.98
69980;BME280;57318;56.232;43.944;2023-03-26T13:49:14;97695.66;;;11.69;69.94
69980;BME280;57318;56.232;43.944;2023-03-26T13:52:05;97692.47;;;11.74;69.75
69980;BME280;57318;56.232;43.944;2023-03-26T13:54:46;97681.81;;;11.82;69.60
69980;BME280;57318;56.232;43.944;2023-03-26T13:57:36;97686.75;;;11.94;68.95
69980;BME280;57318;56.232;43.944;2023-03-26T14:00:16;97688.72;;;12.00;68.50
69980;BME280;57318;56.232;43.944;2023-03-26T14:02:55;97682.75;;;12.21;67.54
69980;BME280;57318;56.232;43.944;2023-03-26T14:05:30;97687.47;;;12.42;66.78
69980;BME280;57318;56.232;43.944;2023-03-26T14:10:40;97682.19;;;12.57;65.75
69980;BME280;57318;56.232;43.944;2023-03-26T14:13:32;97684.66;;;12.81;64.87
69980;BME280;57318;56.232;43.944;2023-03-26T14:16:15;97685.31;;;12.98;63.81
69980;BME280;57318;56.232;43.944;2023-03-26T14:18:45;97682.09;;;13.03;63.68
69980;BME280;57318;56.232;43.944;2023-03-26T14:21:23;97678.88;;;12.93;63.72
69980;BME280;57318;56.232;43.944;2023-03-26T14:51:25;97647.41;;;11.33;68.60
69980;BME280;57318;56.232;43.944;2023-03-26T14:53:58;97648.28;;;11.25;68.99
69980;BME280;57318;56.232;43.944;2023-03-26T14:56:48;97650.16;;;11.16;68.97
69980;BME280;57318;56.232;43.944;2023-03-26T15:18:37;97636.63;;;10.78;71.03
69980;BME280;57318;56.232;43.944;2023-03-26T15:29:51;97635.13;;;10.59;71.78
69980;BME280;57318;56.232;43.944;2023-03-26T15:40:39;97625.19;;;10.37;72.88
69980;BME280;57318;56.232;43.944;2023-03-26T15:43:14;97631.28;;;10.29;72.90
69980;BME280;57318;56.232;43.944;2023-03-26T15:53:23;97628.31;;;10.16;73.65
69980;BME280;57318;56.232;43.944;2023-03-26T15:56:21;97633.94;;;10.13;73.73
69980;BME280;57318;56.232;43.944;2023-03-26T16:01:26;97628.59;;;10.04;73.94
69980;BME280;57318;56.232;43.944;2023-03-26T16:04:18;97630.59;;;10.02;74.17
69980;BME280;57318;56.232;43.944;2023-03-26T16:07:33;97628.28;;;9.99;74.13
69980;BME280;57318;56.232;43.944;2023-03-26T16:12:27;97624.31;;;9.95;74.27
69980;BME280;57318;56.232;43.944;2023-03-26T16:15:18;97622.81;;;9.92;74.57
69980;BME280;57318;56.232;43.944;2023-03-26T16:18:14;97628.25;;;9.91;74.47
69980;BME280;57318;56.232;43.944;2023-03-26T16:23:23;97619.50;;;9.90;74.50
69980;BME280;57318;56.232;43.944;2023-03-26T16:25:59;97619.81;;;9.87;74.59
69980;BME280;57318;56.232;43.944;2023-03-26T16:29:01;97617.31;;;9.86;74.42
69980;BME280;57318;56.232;43.944;2023-03-26T16:31:31;97615.81;;;9.83;74.73
69980;BME280;57318;56.232;43.944;2023-03-26T16:49:20;97617.44;;;9.68;74.96
69980;BME280;57318;56.232;43.944;2023-03-26T16:52:14;97616.44;;;9.69;74.81
69980;BME280;57318;56.232;43.944;2023-03-26T16:54:56;97613.97;;;9.67;74.79
69980;BME280;57318;56.232;43.944;2023-03-26T17:10:57;97603.66;;;9.56;74.74
69980;BME280;57318;56.232;43.944;2023-03-26T17:17:07;97602.31;;;9.52;74.93
69980;BME280;57318;56.232;43.944;2023-03-26T17:22:36;97595.31;;;9.43;75.07
69980;BME280;57318;56.232;43.944;2023-03-26T17:33:34;97600.25;;;9.29;75.04
69980;BME280;57318;56.232;43.944;2023-03-26T17:41:07;97590.63;;;9.20;75.11
69980;BME280;57318;56.232;43.944;2023-03-26T17:43:50;97598.19;;;9.15;75.47
69980;BME280;57318;56.232;43.944;2023-03-26T17:51:41;97589.41;;;9.06;75.48
69980;BME280;57318;56.232;43.944;2023-03-26T17:54:35;97585.22;;;9.03;75.62
69980;BME280;57318;56.232;43.944;2023-03-26T17:59:41;97601.41;;;8.92;75.96
69980;BME280;57318;56.232;43.944;2023-03-26T18:02:14;97591.13;;;8.89;76.10
69980;BME280;57318;56.232;43.944;2023-03-26T18:04:42;97594.94;;;8.87;76.25
69980;BME280;57318;56.232;43.944;2023-03-26T18:07:40;97590.78;;;8.84;76.24
69980;BME280;57318;56.232;43.944;2023-03-26T18:17:42;97591.72;;;8.75;76.31
69980;BME280;57318;56.232;43.944;2023-03-26T18:20:27;97586.56;;;8.73;76.19
69980;BME280;57318;56.232;43.944;2023-03-26T18:22:53;97574.16;;;8.74;76.18
69980;BME280;57318;56.232;43.944;2023-03-26T18:25:28;97595.97;;;8.67;76.31
69980;BME280;57318;56.232;43.944;2023-03-26T18:27:56;97580.09;;;8.67;76.45
69980;BME280;57318;56.232;43.944;2023-03-26T18:30:23;97586.38;;;8.66;76.29
69980;BME280;57318;56.232;43.944;2023-03-26T18:33:03;97594.63;;;8.63;76.41
69980;BME280;57318;56.232;43.944;2023-03-26T18:35:42;97580.84;;;8.60;76.41
69980;BME280;57318;56.232;43.944;2023-03-26T18:38:14;97586.00;;;8.61;76.38
69980;BME280;57318;56.232;43.944;2023-03-26T18:40:42;97589.66;;;8.60;76.13
69980;BME280;57318;56.232;43.944;2023-03-26T18:43:20;97590.31;;;8.62;76.04
69980;BME280;57318;56.232;43.944;2023-03-26T18:45:50;97586.00;;;8.61;75.89
69980;BME280;57318;56.232;43.944;2023-03-26T18:48:22;97594.59;;;8.55;76.00
69980;BME280;57318;56.232;43.944;2023-03-26T18:50:55;97594.75;;;8.54;75.97
69980;BME280;57318;56.232;43.944;2023-03-26T18:53:23;97588.59;;;8.53;75.54
69980;BME280;57318;56.232;43.944;2023-03-26T18:55:51;97602.84;;;8.52;75.59
69980;BME280;57318;56.232;43.944;2023-03-26T18:58:34;97591.56;;;8.50;75.41
69980;BME280;57318;56.232;43.944;2023-03-26T19:01:03;97596.19;;;8.48;75.14
69980;BME280;57318;56.232;43.944;2023-03-26T19:03:32;97593.03;;;8.44;74.66
69980;BME280;57318;56.232;43.944;2023-03-26T19:06:00;97594.50;;;8.47;74.43
69980;BME280;57318;56.232;43.944;2023-03-26T19:08:29;97607.59;;;8.48;74.26
69980;BME280;57318;56.232;43.944;2023-03-26T19:10:57;97601.78;;;8.45;73.91
69980;BME280;57318;56.232;43.944;2023-03-26T19:13:26;97608.06;;;8.44;73.98
69980;BME280;57318;56.232;43.944;2023-03-26T19:15:53;97600.13;;;8.44;73.98
69980;BME280;57318;56.232;43.944;2023-03-26T19:18:25;97607.66;;;8.39;73.99
69980;BME280;57318;56.232;43.944;2023-03-26T19:20:59;97601.00;;;8.35;74.09
69980;BME280;57318;56.232;43.944;2023-03-26T19:23:32;97605.94;;;8.29;74.17
69980;BME280;57318;56.232;43.944;2023-03-26T19:26:02;97608.06;;;8.26;74.27